createdAt,value
2022-10-07T00:04:14.995Z,84.55
2022-10-07T00:09:06.615Z,84.30
2022-10-07T00:14:01.281Z,84.25
2022-10-07T00:18:57.644Z,84.24
2022-10-07T00:23:49.573Z,84.83
2022-10-07T00:28:41.976Z,84.52
2022-10-07T00:33:36.431Z,84.69
2022-10-07T00:38:28.133Z,84.57
2022-10-07T00:43:31.500Z,84.78
2022-10-07T00:48:27.735Z,84.49
2022-10-07T00:53:20.788Z,85.15
2022-10-07T00:58:13.139Z,84.76
2022-10-07T01:03:05.294Z,84.82
2022-10-07T01:07:59.433Z,85.23
2022-10-07T01:13:06.452Z,85.53
2022-10-07T01:18:11.843Z,85.45
2022-10-07T01:23:21.989Z,85.50
2022-10-07T01:28:19.820Z,85.80
2022-10-07T01:33:16.369Z,85.67
2022-10-07T01:38:11.374Z,86.10
2022-10-07T01:43:03.194Z,86.44
2022-10-07T01:47:54.907Z,86.58
2022-10-07T01:52:55.755Z,86.53
2022-10-07T01:58:02.404Z,86.63
2022-10-07T02:03:24.472Z,87.33
2022-10-07T02:08:28.173Z,88.08
2022-10-07T02:13:33.300Z,89.05
2022-10-07T02:18:28.006Z,89.14
2022-10-07T02:23:22.101Z,89.33
2022-10-07T02:28:16.437Z,89.45
2022-10-07T02:33:09.852Z,89.99
2022-10-07T02:38:08.824Z,89.99
2022-10-07T02:43:08.453Z,90.28
2022-10-07T02:48:35.462Z,90.25
2022-10-07T02:53:30.288Z,90.25
2022-10-07T02:58:25.844Z,90.27
2022-10-07T03:03:17.523Z,89.80
2022-10-07T03:08:11.284Z,89.44
2022-10-07T03:13:06.210Z,89.70
2022-10-07T03:17:58.018Z,89.59
2022-10-07T03:22:49.676Z,89.43
2022-10-07T03:27:46.479Z,89.63
2022-10-07T03:32:39.082Z,89.68
2022-10-07T03:37:31.041Z,89.06
2022-10-07T03:42:24.146Z,88.94
2022-10-07T03:47:18.566Z,88.71
2022-10-07T03:52:10.629Z,88.50
2022-10-07T03:57:02.302Z,88.34
2022-10-07T04:01:54.208Z,88.17
2022-10-07T04:06:46.398Z,88.23
2022-10-07T04:11:40.653Z,88.18
2022-10-07T04:16:37.990Z,88.03
2022-10-07T04:21:29.888Z,88.26
2022-10-07T04:26:21.630Z,88.10
2022-10-07T04:31:13.289Z,88.29
2022-10-07T04:36:06.512Z,88.44
2022-10-07T04:40:59.288Z,88.25
2022-10-07T04:46:01.088Z,88.44
2022-10-07T04:50:53.021Z,88.32
2022-10-07T04:55:48.090Z,88.88
2022-10-07T05:00:50.865Z,88.82
2022-10-07T05:05:44.345Z,88.79
2022-10-07T05:10:40.028Z,89.10
2022-10-07T05:15:31.958Z,89.14
2022-10-07T05:20:23.623Z,89.50
2022-10-07T05:25:15.574Z,89.43
2022-10-07T05:30:09.264Z,89.58
2022-10-07T05:35:01.870Z,89.62
2022-10-07T05:39:53.610Z,89.17
2022-10-07T05:44:46.158Z,89.85
2022-10-07T05:49:38.064Z,89.73
2022-10-07T05:54:29.916Z,89.71
2022-10-07T05:59:22.232Z,90.00
2022-10-07T06:04:14.282Z,89.97
2022-10-07T06:09:24.951Z,89.50
2022-10-07T06:14:16.537Z,89.80
2022-10-07T06:19:22.530Z,89.84
2022-10-07T06:24:14.406Z,89.46
2022-10-07T06:29:06.685Z,89.89
2022-10-07T06:33:58.372Z,89.70
2022-10-07T06:38:52.182Z,89.62
2022-10-07T06:43:43.933Z,89.70
2022-10-07T06:48:35.908Z,89.67
2022-10-07T06:53:27.629Z,89.41
2022-10-07T06:58:19.377Z,89.16
2022-10-07T07:03:12.462Z,88.57
2022-10-07T07:08:04.293Z,87.84
2022-10-07T07:12:56.460Z,86.30
2022-10-07T07:17:48.745Z,86.32
2022-10-07T07:22:41.938Z,84.85
2022-10-07T07:27:33.641Z,84.26
2022-10-07T07:32:25.681Z,83.90
2022-10-07T07:37:17.730Z,83.79
2022-10-07T07:42:09.392Z,83.28
2022-10-07T07:47:01.150Z,81.63
2022-10-07T07:51:52.730Z,78.32
2022-10-07T07:56:45.072Z,78.51
2022-10-07T08:01:36.980Z,77.47
2022-10-07T08:06:28.961Z,76.62
2022-10-07T08:11:21.162Z,75.75
2022-10-07T08:16:15.434Z,74.48
2022-10-07T08:21:10.793Z,72.56
2022-10-07T08:26:04.092Z,72.44
2022-10-07T08:31:01.365Z,71.39
2022-10-07T08:35:59.208Z,70.76
2022-10-07T08:40:52.403Z,70.00
2022-10-07T08:45:45.374Z,70.01
2022-10-07T08:50:50.584Z,70.33
2022-10-07T08:55:50.011Z,70.66
2022-10-07T09:00:44.572Z,70.15
2022-10-07T09:05:44.350Z,70.75
2022-10-07T09:10:40.803Z,70.75
2022-10-07T09:15:44.688Z,70.41
2022-10-07T09:20:44.359Z,70.95
2022-10-07T09:25:36.255Z,71.21
2022-10-07T09:30:32.506Z,70.49
2022-10-07T09:35:26.913Z,70.68
2022-10-07T09:40:27.536Z,70.83
2022-10-07T09:45:25.183Z,71.20
2022-10-07T09:50:33.652Z,71.78
2022-10-07T09:55:37.564Z,71.71
2022-10-07T10:00:30.634Z,72.32
2022-10-07T10:05:30.495Z,72.36
2022-10-07T10:10:27.154Z,72.66
2022-10-07T10:15:35.839Z,72.66
2022-10-07T10:20:44.801Z,73.08
2022-10-07T10:26:12.300Z,73.90
2022-10-07T10:31:35.839Z,73.95
2022-10-07T10:36:31.278Z,73.45
2022-10-07T10:41:25.683Z,72.84
2022-10-07T10:46:49.674Z,74.50
2022-10-07T10:52:14.199Z,74.37
2022-10-07T10:57:38.036Z,73.66
2022-10-07T11:02:32.861Z,76.95
2022-10-07T11:07:37.697Z,81.27
2022-10-07T11:12:33.958Z,83.63
2022-10-07T11:17:31.753Z,85.73
2022-10-07T11:22:33.021Z,87.74
2022-10-07T11:27:29.696Z,89.63
2022-10-07T11:32:59.777Z,90.55
2022-10-07T11:38:10.270Z,91.93
2022-10-07T11:43:17.428Z,92.17
2022-10-07T11:48:14.620Z,92.93
2022-10-07T11:53:09.846Z,94.07
2022-10-07T11:58:04.424Z,95.20
2022-10-07T12:03:33.683Z,94.89
2022-10-07T12:08:31.900Z,93.71
2022-10-07T12:13:23.561Z,92.02
2022-10-07T12:18:17.693Z,92.27
2022-10-07T12:23:18.758Z,92.34
2022-10-07T12:28:40.878Z,91.52
2022-10-07T12:33:40.355Z,91.80
2022-10-07T12:38:32.285Z,91.09
2022-10-07T12:43:48.536Z,91.92
2022-10-07T12:48:47.439Z,91.91
2022-10-07T12:53:41.721Z,92.95
2022-10-07T12:59:13.922Z,93.20
2022-10-07T13:04:11.379Z,94.63
2022-10-07T13:09:21.955Z,94.79
2022-10-07T13:14:19.857Z,94.64
2022-10-07T13:19:14.493Z,94.06
2022-10-07T13:24:06.234Z,94.88
2022-10-07T13:29:00.386Z,96.91
2022-10-07T13:33:53.007Z,97.06
2022-10-07T13:38:47.296Z,97.65
2022-10-07T13:43:39.051Z,97.66
2022-10-07T13:48:39.703Z,97.08
2022-10-07T13:53:37.666Z,96.66
2022-10-07T13:58:32.088Z,95.31
2022-10-07T14:03:23.751Z,95.08
2022-10-07T14:08:21.408Z,95.88
2022-10-07T14:13:15.367Z,94.34
2022-10-07T14:18:11.131Z,92.33
2022-10-07T14:23:05.965Z,91.52
2022-10-07T14:27:57.683Z,91.99
2022-10-07T14:33:48.802Z,91.86
2022-10-07T14:38:42.449Z,88.06
2022-10-07T14:43:35.870Z,89.44
2022-10-07T14:48:27.941Z,89.33
2022-10-07T14:53:19.598Z,87.05
2022-10-07T14:58:11.724Z,85.37
2022-10-07T15:03:04.028Z,83.87
2022-10-07T15:07:55.690Z,82.83
2022-10-07T15:12:48.622Z,82.12
2022-10-07T15:17:41.657Z,81.78
2022-10-07T15:22:33.423Z,79.94
2022-10-07T15:27:25.167Z,77.37
2022-10-07T15:32:16.844Z,78.10
2022-10-07T15:37:09.319Z,78.46
2022-10-07T15:42:01.014Z,77.19
2022-10-07T15:46:54.440Z,75.05
2022-10-07T15:51:46.968Z,73.96
2022-10-07T15:56:39.234Z,72.55
2022-10-07T16:01:33.815Z,71.60
2022-10-07T16:06:28.569Z,73.03
2022-10-07T16:11:20.325Z,73.85
2022-10-07T16:16:17.018Z,72.75
2022-10-07T16:21:22.735Z,71.90
2022-10-07T16:26:23.045Z,72.30
2022-10-07T16:31:14.741Z,72.21
2022-10-07T16:36:11.793Z,72.71
2022-10-07T16:41:03.357Z,74.33
2022-10-07T16:45:55.008Z,75.14
2022-10-07T16:50:47.840Z,76.82
2022-10-07T16:55:39.638Z,77.77
2022-10-07T17:00:31.435Z,79.34
2022-10-07T17:05:23.101Z,80.51
2022-10-07T17:10:14.946Z,79.69
2022-10-07T17:15:06.823Z,79.57
2022-10-07T17:19:58.470Z,79.19
2022-10-07T17:24:50.376Z,78.35
2022-10-07T17:29:42.021Z,79.53
2022-10-07T17:34:34.306Z,80.02
2022-10-07T17:39:25.951Z,80.69
2022-10-07T17:44:17.700Z,80.84
2022-10-07T17:49:14.465Z,81.16
2022-10-07T17:54:06.920Z,81.51
2022-10-07T17:58:58.611Z,82.17
2022-10-07T18:03:52.734Z,82.61
2022-10-07T18:08:44.377Z,83.09
2022-10-07T18:13:54.981Z,83.37
2022-10-07T18:18:48.150Z,83.97
2022-10-07T18:23:41.232Z,84.25
2022-10-07T18:28:34.275Z,84.04
2022-10-07T18:33:26.148Z,84.21
2022-10-07T18:38:17.713Z,83.82
2022-10-07T18:43:09.613Z,83.56
2022-10-07T18:48:01.385Z,84.03
2022-10-07T18:52:54.071Z,84.38
2022-10-07T18:57:45.937Z,83.89
2022-10-07T19:02:38.340Z,83.33
2022-10-07T19:07:31.123Z,84.13
2022-10-07T19:12:41.473Z,84.22
2022-10-07T19:17:33.152Z,84.10
2022-10-07T19:22:24.847Z,84.85
2022-10-07T19:27:16.436Z,85.22
2022-10-07T19:32:08.943Z,85.50
2022-10-07T19:37:00.934Z,85.44
2022-10-07T19:41:52.603Z,85.43
2022-10-07T19:46:44.686Z,85.44
2022-10-07T19:51:38.815Z,86.36
2022-10-07T19:56:35.689Z,86.56
2022-10-07T20:01:31.933Z,86.73
2022-10-07T20:06:24.043Z,87.07
2022-10-07T20:11:15.985Z,86.87
2022-10-07T20:16:18.836Z,87.75
2022-10-07T20:21:15.894Z,87.90
2022-10-07T20:26:08.846Z,88.77
2022-10-07T20:31:09.117Z,89.03
2022-10-07T20:36:04.134Z,89.98
2022-10-07T20:41:14.547Z,89.86
2022-10-07T20:46:06.223Z,89.80
2022-10-07T20:51:05.432Z,89.71
2022-10-07T20:55:57.457Z,89.98
2022-10-07T21:00:49.088Z,89.26
2022-10-07T21:05:40.661Z,88.91
2022-10-07T21:10:32.294Z,88.47
2022-10-07T21:15:24.053Z,88.27
2022-10-07T21:20:15.735Z,87.77
2022-10-07T21:25:12.102Z,87.94
2022-10-07T21:30:04.670Z,87.39
2022-10-07T21:34:56.785Z,88.06
2022-10-07T21:39:48.472Z,87.35
2022-10-07T21:44:40.197Z,87.83
2022-10-07T21:49:31.922Z,88.02
2022-10-07T21:54:23.688Z,87.68
2022-10-07T21:59:16.074Z,88.30
2022-10-07T22:04:08.141Z,88.31
2022-10-07T22:08:59.806Z,88.16
2022-10-07T22:13:53.334Z,88.22
2022-10-07T22:18:53.406Z,88.38
2022-10-07T22:23:50.455Z,87.91
2022-10-07T22:28:42.128Z,87.76
2022-10-07T22:33:38.061Z,87.43
2022-10-07T22:38:29.825Z,87.63
2022-10-07T22:43:21.472Z,87.76
2022-10-07T22:48:13.102Z,87.60
2022-10-07T22:53:04.848Z,87.24
2022-10-07T22:57:56.556Z,87.77
2022-10-07T23:02:48.505Z,87.67
2022-10-07T23:07:40.445Z,87.25
2022-10-07T23:12:32.718Z,88.17
2022-10-07T23:17:24.357Z,87.59
2022-10-07T23:22:17.240Z,87.46
2022-10-07T23:27:10.296Z,87.33
2022-10-07T23:32:02.061Z,86.93
2022-10-07T23:36:55.171Z,86.84
2022-10-07T23:41:46.798Z,86.01
2022-10-07T23:46:39.737Z,86.34
2022-10-07T23:51:32.903Z,85.96
2022-10-07T23:56:25.093Z,85.95
